createdAt,value
2022-12-25T00:04:39.791Z,0
2022-12-25T00:11:02.790Z,0
2022-12-25T00:17:22.891Z,0
2022-12-25T00:23:45.814Z,0
2022-12-25T00:30:05.833Z,0
2022-12-25T00:36:28.844Z,0
2022-12-25T00:42:48.758Z,0
2022-12-25T00:49:11.861Z,0
2022-12-25T00:55:31.817Z,0
2022-12-25T01:01:54.994Z,0
2022-12-25T01:08:14.775Z,0
2022-12-25T01:14:37.853Z,0
2022-12-25T01:20:57.731Z,0
2022-12-25T01:27:20.870Z,0
2022-12-25T01:33:40.812Z,0
2022-12-25T01:40:03.831Z,0
2022-12-25T01:46:23.822Z,0
2022-12-25T01:52:46.829Z,0
2022-12-25T01:59:06.760Z,0
2022-12-25T02:05:29.813Z,0
2022-12-25T02:11:49.804Z,0
2022-12-25T02:18:12.792Z,0
2022-12-25T02:24:32.770Z,0
2022-12-25T02:30:55.930Z,0
2022-12-25T02:37:15.762Z,0
2022-12-25T02:43:38.784Z,0
2022-12-25T02:49:58.832Z,0
2022-12-25T02:56:21.869Z,0
2022-12-25T03:02:41.809Z,0
2022-12-25T03:09:04.846Z,0
2022-12-25T03:15:24.775Z,0
2022-12-25T03:21:47.871Z,0
2022-12-25T03:28:07.842Z,0
2022-12-25T03:34:30.860Z,0
2022-12-25T03:40:50.753Z,0
2022-12-25T03:47:13.833Z,0
2022-12-25T03:53:33.753Z,0
2022-12-25T03:59:56.809Z,0
2022-12-25T04:06:16.777Z,0
2022-12-25T04:12:39.939Z,0
2022-12-25T04:18:59.790Z,0
2022-12-25T04:25:22.838Z,0
2022-12-25T04:41:48.680Z,0
2022-12-25T04:48:08.733Z,0
2022-12-25T04:54:31.790Z,0
2022-12-25T05:00:51.801Z,0
2022-12-25T05:07:14.796Z,0
2022-12-25T05:13:34.842Z,0
2022-12-25T05:19:57.762Z,0
2022-12-25T05:26:17.815Z,0
2022-12-25T05:32:40.779Z,0
2022-12-25T05:39:00.779Z,0
2022-12-25T05:45:23.813Z,0
2022-12-25T05:51:43.770Z,0
2022-12-25T05:58:06.842Z,0
2022-12-25T06:04:26.777Z,0
2022-12-25T06:10:49.772Z,0
2022-12-25T06:17:09.801Z,0
2022-12-25T06:23:32.794Z,0
2022-12-25T06:29:52.864Z,0
2022-12-25T06:36:15.780Z,0
2022-12-25T06:42:35.792Z,0
2022-12-25T06:48:58.770Z,0
2022-12-25T06:55:18.791Z,0
2022-12-25T07:01:42.004Z,0
2022-12-25T07:08:01.758Z,0
2022-12-25T07:14:24.898Z,0
2022-12-25T07:20:44.785Z,0
2022-12-25T07:27:07.770Z,0
2022-12-25T07:33:27.754Z,0
2022-12-25T07:39:50.809Z,0
2022-12-25T07:46:10.861Z,0
2022-12-25T07:52:38.082Z,0
2022-12-25T07:58:53.768Z,0
2022-12-25T08:05:16.787Z,0
2022-12-25T08:11:36.793Z,0
2022-12-25T08:17:59.744Z,0
2022-12-25T08:24:19.790Z,0
2022-12-25T08:30:42.800Z,0
2022-12-25T08:37:02.745Z,0
2022-12-25T08:43:25.802Z,5.62
2022-12-25T08:49:45.803Z,5.62
2022-12-25T08:56:08.804Z,5.62
2022-12-25T09:02:29.029Z,5.62
2022-12-25T09:08:51.815Z,0
2022-12-25T09:15:11.819Z,5.62
2022-12-25T09:21:34.801Z,5.62
2022-12-25T09:27:54.802Z,5.62
2022-12-25T09:34:19.127Z,5.62
2022-12-25T09:40:37.802Z,5.62
2022-12-25T09:47:00.939Z,5.62
2022-12-25T10:04:10.787Z,0
2022-12-25T10:10:33.778Z,0
2022-12-25T10:16:53.773Z,0
2022-12-25T10:23:16.797Z,5.62
2022-12-25T10:29:36.761Z,5.62
2022-12-25T10:35:59.806Z,5.62
2022-12-25T10:42:19.759Z,5.62
2022-12-25T10:48:42.805Z,5.62
2022-12-25T10:55:02.911Z,5.62
2022-12-25T11:01:26.163Z,0
2022-12-25T11:07:46.024Z,5.62
2022-12-25T11:14:08.841Z,11.25
2022-12-25T11:20:28.857Z,11.25
2022-12-25T11:26:51.812Z,16.88
2022-12-25T11:33:11.802Z,39.38
2022-12-25T11:39:34.769Z,33.75
2022-12-25T11:45:54.769Z,28.12
2022-12-25T11:52:17.799Z,33.75
2022-12-25T11:58:37.927Z,16.88
2022-12-25T12:05:00.774Z,16.88
2022-12-25T12:11:20.821Z,28.12
2022-12-25T12:17:44.440Z,28.12
2022-12-25T12:24:04.793Z,22.5
2022-12-25T12:30:27.769Z,16.88
2022-12-25T12:36:47.818Z,16.88
2022-12-25T12:43:10.817Z,11.25
2022-12-25T12:49:30.814Z,16.88
2022-12-25T12:55:53.778Z,11.25
2022-12-25T13:02:13.862Z,11.25
2022-12-25T13:08:36.804Z,11.25
2022-12-25T13:14:56.825Z,11.25
2022-12-25T13:21:19.757Z,16.88
2022-12-25T13:27:39.885Z,5.62
2022-12-25T13:34:02.814Z,11.25
2022-12-25T13:40:22.803Z,11.25
2022-12-25T13:46:45.816Z,11.25
2022-12-25T13:53:05.764Z,5.62
2022-12-25T13:59:28.779Z,5.62
2022-12-25T14:05:48.782Z,5.62
2022-12-25T14:12:17.427Z,0
2022-12-25T14:18:31.778Z,0
2022-12-25T14:24:54.786Z,0
2022-12-25T14:31:14.944Z,0
2022-12-25T14:37:37.771Z,0
2022-12-25T14:43:57.805Z,0
2022-12-25T14:50:20.867Z,0
2022-12-25T14:56:40.745Z,0
2022-12-25T15:03:03.924Z,0
2022-12-25T15:26:09.304Z,0
2022-12-25T15:32:28.729Z,0
2022-12-25T15:38:51.801Z,0
2022-12-25T15:45:11.786Z,0
2022-12-25T15:51:34.778Z,0
2022-12-25T15:57:54.803Z,0
2022-12-25T16:04:17.789Z,0
2022-12-25T16:10:39.070Z,0
2022-12-25T16:17:00.816Z,0
2022-12-25T16:23:20.772Z,0
2022-12-25T16:29:43.825Z,0
2022-12-25T16:36:03.783Z,0
2022-12-25T16:42:26.811Z,0
2022-12-25T16:48:46.763Z,0
2022-12-25T16:55:09.769Z,0
2022-12-25T17:01:29.997Z,0
2022-12-25T17:07:52.809Z,0
2022-12-25T17:14:12.823Z,0
2022-12-25T17:20:35.818Z,0
2022-12-25T17:26:55.814Z,0
2022-12-25T17:33:18.785Z,0
2022-12-25T17:39:38.802Z,0
2022-12-25T17:46:01.791Z,0
2022-12-25T17:52:21.748Z,0
2022-12-25T17:58:44.799Z,0
2022-12-25T18:05:04.786Z,0
2022-12-25T18:11:27.791Z,0
2022-12-25T18:17:47.781Z,0
2022-12-25T18:24:10.800Z,0
2022-12-25T18:30:30.761Z,0
2022-12-25T18:36:53.828Z,0
2022-12-25T18:43:13.788Z,0
2022-12-25T18:49:36.774Z,0
2022-12-25T18:55:56.799Z,0
2022-12-25T19:02:19.874Z,0
2022-12-25T19:08:39.801Z,0
2022-12-25T19:15:02.805Z,0
2022-12-25T19:21:22.750Z,0
2022-12-25T19:27:45.801Z,0
2022-12-25T19:34:05.782Z,0
2022-12-25T19:40:28.770Z,0
2022-12-25T19:46:48.784Z,0
2022-12-25T19:53:11.763Z,0
2022-12-25T19:59:31.800Z,0
2022-12-25T20:05:54.725Z,0
2022-12-25T20:12:14.831Z,0
2022-12-25T20:18:37.759Z,0
2022-12-25T20:24:57.769Z,0
2022-12-25T20:31:20.889Z,0
2022-12-25T20:46:52.023Z,0
2022-12-25T20:53:11.744Z,0
2022-12-25T20:59:37.546Z,0
2022-12-25T21:05:54.797Z,0
2022-12-25T21:12:17.741Z,0
2022-12-25T21:18:37.803Z,0
2022-12-25T21:25:00.780Z,0
2022-12-25T21:31:20.936Z,0
2022-12-25T21:37:43.821Z,0
2022-12-25T21:44:03.767Z,0
2022-12-25T21:50:26.772Z,0
2022-12-25T21:56:46.791Z,0
2022-12-25T22:03:09.830Z,0
2022-12-25T22:09:29.805Z,0
2022-12-25T22:15:52.799Z,0
2022-12-25T22:22:12.777Z,0
2022-12-25T22:28:35.739Z,0
2022-12-25T22:34:55.749Z,0
2022-12-25T22:41:18.819Z,0
2022-12-25T22:47:38.762Z,0
2022-12-25T22:54:03.700Z,0
2022-12-25T23:00:21.804Z,0
2022-12-25T23:23:18.831Z,0
2022-12-25T23:29:38.738Z,0
2022-12-25T23:36:01.804Z,0
2022-12-25T23:42:21.843Z,0
2022-12-25T23:48:44.814Z,0
2022-12-25T23:55:04.795Z,0
